Terminal Aerodrome Forecast
Issued by NWS Houston/Galveston, TX

Current Version | Previous Version | Text Only | Print | Product List | Glossary On
Versions: 1 2 3 4 5 6 7 8 9 10 11 12 13 14 15 16 17 18 19 20 21 22 23
000
FTUS44 KHGX 250907 AAA
TAFCLL
TAF AMD
KCLL 250907Z 2509/2606 10004KT P6SM SCT250
     FM251200 09004KT P6SM SCT015
     FM251600 13007KT P6SM VCTS SCT040CB
     FM260100 14005KT P6SM SCT250=

USA.gov is the U.S. government's official web portal to all federal, state and local government web resources and services.